Time;durP1;ratioP1;P1;durP2;ratioP2;P2;SDS_P1;SDS_P2;PMS_P1;PMS_P2;Temp;Humidity;BMP_temperature;BMP_pressure;BME280_temperature;BME280_humidity;BME280_pressure;Samples;Min_cycle;Max_cycle;Signal;HPM_P1;HPM_P2
2023/08/10 00:01:10;;;;;;;6.73;2.30;;;;;;;17.95;70.35;100958.00;4855837;29;20675;-74
2023/08/10 00:04:33;;;;;;;4.97;2.50;;;;;;;17.73;70.90;100956.22;4885690;29;20217;-74
2023/08/10 00:07:03;;;;;;;5.50;2.27;;;;;;;17.70;71.42;100961.94;4884032;29;20221;-74
2023/08/10 00:09:32;;;;;;;5.00;2.50;;;;;;;17.64;71.78;100960.84;4887438;29;20211;-74
2023/08/10 00:12:00;;;;;;;4.53;2.53;;;;;;;17.41;72.99;100959.19;4887868;29;20273;-74
2023/08/10 00:14:36;;;;;;;6.27;2.30;;;;;;;17.18;74.00;100961.88;4889208;29;20854;-73
2023/08/10 00:17:20;;;;;;;11.60;2.27;;;;;;;17.11;74.61;100964.44;4886912;29;20209;-74
2023/08/10 00:20:23;;;;;;;6.27;2.53;;;;;;;17.08;74.76;100970.13;4859393;29;20344;-74
2023/08/10 00:22:53;;;;;;;4.60;2.30;;;;;;;17.06;74.80;100966.00;4887786;29;20209;-74
2023/08/10 00:25:21;;;;;;;6.77;2.53;;;;;;;16.99;75.00;100971.22;4886654;29;20843;-74
2023/08/10 00:28:48;;;;;;;4.50;2.30;;;;;;;17.12;74.90;100976.00;4890121;29;20357;-74
2023/08/10 00:31:55;;;;;;;;;;;;;;;;;;;;;
2023/08/10 00:38:38;;;;;;;7.50;2.63;;;;;;;16.93;75.49;100971.94;4795633;29;20255;-73
2023/08/10 00:41:29;;;;;;;4.77;2.50;;;;;;;16.74;76.73;100965.16;4793388;29;20252;-74
2023/08/10 00:44:19;;;;;;;6.33;2.70;;;;;;;16.74;76.47;100970.53;4793647;29;20220;-73
2023/08/10 00:46:49;;;;;;;4.53;2.40;;;;;;;16.65;76.61;100968.06;4795564;29;20227;-74
2023/08/10 00:49:57;;;;;;;4.97;2.70;;;;;;;16.65;76.43;100968.91;4794669;29;20374;-74
2023/08/10 00:55:53;;;;;;;4.30;2.50;;;;;;;16.63;76.95;100968.22;4869950;29;20222;-77
2023/08/10 00:58:36;;;;;;;6.20;2.70;;;;;;;16.65;76.65;100968.06;4885963;29;20632;-74
2023/08/10 01:01:19;;;;;;;3.77;2.47;;;;;;;16.56;77.23;100975.28;4878942;29;20213;-74
2023/08/10 01:04:25;;;;;;;5.40;2.70;;;;;;;16.54;77.02;100964.72;4888868;29;20225;-73
2023/08/10 01:15:04;;;;;;;5.00;2.80;;;;;;;16.53;77.32;100978.31;4889023;29;20636;-75
2023/08/10 01:17:43;;;;;;;4.83;2.40;;;;;;;16.46;78.02;100980.00;4885301;29;20214;-74
2023/08/10 01:20:18;;;;;;;7.87;2.33;;;;;;;16.38;79.01;100988.06;4888847;29;20213;-74
2023/08/10 01:23:15;;;;;;;4.10;2.50;;;;;;;16.58;78.05;100989.31;4886976;29;20387;-74
2023/08/10 01:25:51;;;;;;;4.40;2.40;;;;;;;16.72;77.01;100985.94;4890042;29;20216;-75
2023/08/10 01:28:50;;;;;;;;;;;;;;;;;;;;;
2023/08/10 01:31:31;;;;;;;4.60;2.67;;;;;;;17.01;75.21;100995.16;4887387;29;20304;-74
2023/08/10 01:34:31;;;;;;;5.77;2.57;;;;;;;17.04;74.70;100997.47;4885995;29;20404;-74
2023/08/10 01:37:33;;;;;;;7.60;2.80;;;;;;;17.12;74.70;101002.78;4888939;29;20215;-74
2023/08/10 01:40:42;;;;;;;5.63;2.57;;;;;;;17.19;74.06;101009.09;4880672;29;20269;-74
2023/08/10 02:02:07;;;;;;;7.03;2.03;;;;;;;17.31;73.03;100996.97;4794744;29;20308;-74
2023/08/10 02:05:41;;;;;;;3.93;2.17;;;;;;;17.29;73.33;100998.97;4764864;29;20379;-74
2023/08/10 02:16:42;;;;;;;5.70;2.87;;;;;;;17.25;74.16;101011.88;4794257;29;20347;-74
2023/08/10 02:43:21;;;;;;;8.00;3.13;;;;;;;17.09;76.71;101000.44;4897191;29;20257;-74
2023/08/10 02:50:11;;;;;;;9.77;3.90;;;;;;;16.85;78.91;100999.59;4741237;30;20326;-75
2023/08/10 04:30:38;;;;;;;6.87;3.67;;;;;;;16.82;81.16;101034.75;4657424;30;20287;-59
2023/08/10 04:33:06;;;;;;;7.00;3.87;;;;;;;16.80;81.99;101034.09;4748623;29;20274;-59
2023/08/10 04:35:34;;;;;;;7.13;3.77;;;;;;;16.79;81.99;101035.13;4863394;29;20223;-58
2023/08/10 04:38:01;;;;;;;5.60;3.33;;;;;;;16.75;82.53;101033.78;4877674;29;21892;-59
2023/08/10 04:40:29;;;;;;;8.67;3.87;;;;;;;16.75;83.42;101039.16;4879104;29;20285;-59
2023/08/10 04:43:00;;;;;;;6.07;3.30;;;;;;;16.81;82.01;101046.47;4879638;29;20213;-59
2023/08/10 04:45:27;;;;;;;5.53;4.00;;;;;;;16.83;81.59;101047.16;4880512;29;20301;-59
2023/08/10 04:47:56;;;;;;;6.27;3.33;;;;;;;16.85;81.24;101050.50;4880346;29;20304;-59
2023/08/10 04:50:25;;;;;;;6.77;3.43;;;;;;;16.84;80.92;101054.19;4880648;29;20225;-57
2023/08/10 04:52:53;;;;;;;6.27;3.40;;;;;;;16.86;80.67;101043.28;4881840;29;20238;-56
2023/08/10 04:55:25;;;;;;;5.87;3.40;;;;;;;16.88;80.73;101044.78;4877785;29;20321;-58
2023/08/10 04:57:53;;;;;;;5.93;3.20;;;;;;;16.87;80.24;101044.97;4878710;29;20305;-58
2023/08/10 05:00:23;;;;;;;5.30;2.80;;;;;;;16.88;79.96;101050.16;4878593;29;20222;-59
2023/08/10 05:02:51;;;;;;;6.70;3.40;;;;;;;16.90;80.06;101047.28;4879501;29;20217;-57
2023/08/10 05:05:20;;;;;;;4.90;3.00;;;;;;;16.88;80.45;101050.16;4878623;29;20920;-58
2023/08/10 05:07:48;;;;;;;6.67;3.63;;;;;;;16.93;80.30;101058.50;4879185;29;20210;-59
2023/08/10 05:10:17;;;;;;;6.63;3.97;;;;;;;16.95;79.90;101058.31;4881408;29;20352;-57
2023/08/10 05:12:44;;;;;;;6.90;3.03;;;;;;;17.00;80.27;101052.41;4879157;29;20324;-59
2023/08/10 05:15:14;;;;;;;4.37;3.27;;;;;;;17.03;80.02;101052.06;4879702;29;20217;-59
2023/08/10 05:17:42;;;;;;;6.37;3.20;;;;;;;17.03;80.16;101058.28;4880890;29;20726;-59
2023/08/10 05:20:14;;;;;;;6.70;4.00;;;;;;;17.07;80.02;101058.75;4878565;29;20221;-61
2023/08/10 05:22:44;;;;;;;7.10;3.40;;;;;;;17.06;79.62;101067.81;4879530;29;20202;-54
2023/08/10 05:25:14;;;;;;;9.63;3.43;;;;;;;17.08;79.02;101071.13;4878544;29;20220;-60
2023/08/10 05:27:45;;;;;;;6.20;3.00;;;;;;;17.09;78.70;101075.47;4880621;29;20209;-61
2023/08/10 05:30:14;;;;;;;9.10;3.30;;;;;;;17.12;77.92;101073.28;4881234;29;20229;-60
2023/08/10 05:32:43;;;;;;;4.13;2.77;;;;;;;17.14;77.86;101070.44;4880517;29;20458;-59
2023/08/10 05:35:12;;;;;;;6.47;3.13;;;;;;;17.22;77.46;101071.22;4883902;29;20301;-58
2023/08/10 05:37:44;;;;;;;4.57;2.83;;;;;;;17.23;78.35;101075.59;4882429;29;20260;-61
2023/08/10 05:40:12;;;;;;;5.37;3.27;;;;;;;17.23;78.14;101082.78;4884137;29;20198;-58
2023/08/10 05:42:41;;;;;;;7.30;3.80;;;;;;;17.24;78.12;101079.91;4883678;29;20226;-59
2023/08/10 05:45:14;;;;;;;5.43;3.13;;;;;;;17.29;77.89;101090.94;4884172;29;20207;-57
2023/08/10 05:47:44;;;;;;;13.17;3.83;;;;;;;17.32;77.87;101076.38;4881911;29;20210;-58
2023/08/10 05:50:12;;;;;;;7.13;3.60;;;;;;;17.32;77.66;101073.69;4883655;29;20213;-61
2023/08/10 05:52:40;;;;;;;9.30;3.50;;;;;;;17.41;77.06;101087.88;4884666;29;20671;-60
2023/08/10 05:55:10;;;;;;;9.80;3.77;;;;;;;17.42;77.78;101085.00;4885141;29;20804;-57
2023/08/10 05:57:38;;;;;;;10.43;3.43;;;;;;;17.40;78.22;101095.06;4882158;29;20289;-59
2023/08/10 06:00:08;;;;;;;6.13;3.80;;;;;;;17.44;77.98;101092.84;4883436;29;20221;-61
2023/08/10 06:02:36;;;;;;;4.97;3.30;;;;;;;17.48;77.93;101096.88;4881430;29;20289;-59
2023/08/10 06:05:06;;;;;;;4.60;3.20;;;;;;;17.49;77.17;101085.13;4883460;29;20213;-59
2023/08/10 06:07:34;;;;;;;4.30;3.20;;;;;;;17.52;76.85;101093.63;4882189;29;20216;-58
2023/08/10 06:10:02;;;;;;;5.53;3.30;;;;;;;17.57;76.67;101098.47;4882494;29;20567;-58
2023/08/10 06:12:31;;;;;;;7.07;3.53;;;;;;;17.57;77.40;101093.13;4881152;29;20220;-60
2023/08/10 06:15:00;;;;;;;6.03;3.30;;;;;;;17.61;78.09;101089.88;4883509;29;20264;-59
2023/08/10 06:17:28;;;;;;;14.17;3.90;;;;;;;17.67;77.75;101094.59;4884754;29;20796;-59
2023/08/10 06:19:57;;;;;;;8.17;3.47;;;;;;;17.73;77.54;101092.19;4879633;29;20222;-58
2023/08/10 06:22:27;;;;;;;6.13;3.60;;;;;;;17.77;76.83;101090.78;4881674;29;20218;-58
2023/08/10 06:24:55;;;;;;;8.30;3.57;;;;;;;17.81;77.13;101094.81;4883255;29;20877;-60
2023/08/10 06:27:23;;;;;;;7.23;3.80;;;;;;;17.85;76.08;101096.97;4883064;29;20228;-60
2023/08/10 06:29:52;;;;;;;9.37;4.60;;;;;;;17.94;75.55;101103.09;4881139;29;20225;-60
2023/08/10 06:32:20;;;;;;;6.27;3.53;;;;;;;17.92;76.02;101103.28;4883484;29;20243;-61
2023/08/10 06:34:48;;;;;;;9.60;3.43;;;;;;;18.02;75.48;101105.72;4882467;29;20236;-60
2023/08/10 06:37:16;;;;;;;8.37;3.23;;;;;;;18.08;75.60;101102.28;4878078;29;20293;-59
2023/08/10 06:39:46;;;;;;;6.73;3.80;;;;;;;18.14;75.80;101104.22;4873897;29;20221;-64
2023/08/10 06:42:14;;;;;;;9.93;4.60;;;;;;;18.17;75.67;101111.09;4880962;29;20254;-62
2023/08/10 06:44:42;;;;;;;5.83;3.80;;;;;;;18.13;75.52;101105.25;4879824;29;20350;-60
2023/08/10 06:47:11;;;;;;;6.57;4.27;;;;;;;18.20;75.01;101105.38;4880668;29;20286;-66
2023/08/10 06:49:39;;;;;;;7.63;4.20;;;;;;;18.22;73.81;101109.53;4879583;29;20220;-62
2023/08/10 06:52:07;;;;;;;6.07;3.60;;;;;;;18.29;73.47;101104.28;4878153;29;20220;-63
2023/08/10 06:54:35;;;;;;;5.77;3.50;;;;;;;18.33;73.61;101106.41;4881477;29;20241;-62
2023/08/10 06:57:03;;;;;;;6.77;3.60;;;;;;;18.45;73.24;101112.16;4878888;29;20226;-60
2023/08/10 06:59:32;;;;;;;7.73;4.23;;;;;;;18.48;73.73;101105.56;4878319;29;20224;-63
2023/08/10 07:02:21;;;;;;;9.40;4.17;;;;;;;18.48;73.82;101102.88;4881482;29;20224;-61
2023/08/10 07:04:49;;;;;;;6.70;3.10;;;;;;;18.51;73.56;101107.91;4882475;29;20217;-61
2023/08/10 07:07:17;;;;;;;5.80;3.43;;;;;;;18.55;72.97;101115.41;4878914;29;20321;-61
2023/08/10 07:09:46;;;;;;;10.47;3.27;;;;;;;18.62;72.14;101112.84;4878820;29;20212;-61
2023/08/10 07:12:14;;;;;;;7.27;3.47;;;;;;;18.66;72.35;101116.81;4875852;29;20218;-64
2023/08/10 07:14:42;;;;;;;7.83;3.10;;;;;;;18.64;71.92;101110.81;4879974;29;20786;-60
2023/08/10 07:17:10;;;;;;;5.30;3.50;;;;;;;18.71;71.27;101119.81;4881254;29;20337;-60
2023/08/10 07:19:40;;;;;;;6.63;3.37;;;;;;;18.73;71.29;101107.84;4880350;29;20686;-61
2023/08/10 07:22:08;;;;;;;5.40;3.20;;;;;;;18.79;71.11;101117.84;4882922;29;20653;-61
2023/08/10 07:24:36;;;;;;;4.70;2.73;;;;;;;18.86;71.25;101112.56;4877380;29;20221;-60
2023/08/10 07:27:04;;;;;;;7.60;3.63;;;;;;;18.89;71.04;101109.50;4879483;29;20224;-60
2023/08/10 07:29:36;;;;;;;8.57;3.20;;;;;;;18.97;70.61;101113.94;4879242;29;20248;-59
2023/08/10 07:32:06;;;;;;;7.77;3.77;;;;;;;19.04;70.22;101121.06;4880894;29;20220;-62
2023/08/10 07:34:34;;;;;;;5.60;3.27;;;;;;;19.07;70.00;101115.34;4881788;29;20341;-60
2023/08/10 07:37:03;;;;;;;7.87;3.63;;;;;;;19.16;70.00;101124.13;4880008;29;20221;-62
2023/08/10 07:39:31;;;;;;;9.37;3.57;;;;;;;19.24;68.96;101115.13;4876614;29;20269;-60
2023/08/10 07:41:59;;;;;;;7.60;3.43;;;;;;;19.31;68.78;101116.00;4877461;29;20224;-58
2023/08/10 07:44:27;;;;;;;12.50;3.23;;;;;;;19.40;68.68;101117.56;4877294;29;20218;-60
2023/08/10 07:46:54;;;;;;;6.27;3.30;;;;;;;19.51;67.63;101127.88;4877323;29;20329;-61
2023/08/10 07:49:22;;;;;;;8.17;4.10;;;;;;;19.61;67.09;101130.25;4878930;29;20210;-60
2023/08/10 07:51:50;;;;;;;8.37;3.80;;;;;;;19.66;66.85;101125.94;4877418;29;20293;-60
2023/08/10 07:54:19;;;;;;;5.63;3.50;;;;;;;19.72;66.87;101118.97;4875682;29;20361;-59
2023/08/10 07:56:47;;;;;;;7.43;4.13;;;;;;;19.81;66.41;101118.66;4878866;29;20329;-63
2023/08/10 07:59:16;;;;;;;9.13;3.73;;;;;;;19.93;66.11;101113.59;4878488;29;20210;-60
2023/08/10 08:01:44;;;;;;;7.57;3.30;;;;;;;20.05;65.38;101113.91;4877948;29;20293;-59
2023/08/10 08:04:12;;;;;;;5.87;3.60;;;;;;;20.19;65.08;101110.28;4879470;29;20217;-62
2023/08/10 08:06:40;;;;;;;5.17;3.17;;;;;;;20.33;63.56;101113.88;4876817;29;20305;-60
2023/08/10 08:09:08;;;;;;;7.30;3.40;;;;;;;20.23;63.77;101106.16;4878100;29;20585;-62
2023/08/10 08:11:37;;;;;;;7.00;4.10;;;;;;;20.23;63.89;101103.47;4878615;29;20245;-60
2023/08/10 08:14:06;;;;;;;8.93;3.43;;;;;;;20.30;62.69;101101.66;4877739;29;20274;-61
2023/08/10 08:16:34;;;;;;;10.30;3.47;;;;;;;20.39;63.00;101105.91;4878959;29;20214;-61
2023/08/10 08:19:02;;;;;;;10.03;3.10;;;;;;;20.50;63.51;101102.66;4876765;29;20229;-61
2023/08/10 08:21:32;;;;;;;6.33;3.37;;;;;;;20.67;62.18;101099.66;4879809;29;20224;-60
2023/08/10 08:24:00;;;;;;;10.57;3.80;;;;;;;20.80;61.95;101099.72;4877038;29;20206;-61
2023/08/10 08:26:28;;;;;;;5.73;3.10;;;;;;;20.88;61.28;101089.59;4879411;29;20232;-60
2023/08/10 08:28:58;;;;;;;9.37;3.80;;;;;;;20.95;61.22;101085.06;4879589;29;20217;-60
2023/08/10 08:31:26;;;;;;;10.60;3.67;;;;;;;21.03;60.74;101087.56;4878786;29;20379;-63
2023/08/10 08:33:55;;;;;;;10.33;3.83;;;;;;;21.11;60.64;101094.66;4879650;29;20277;-61
2023/08/10 08:36:23;;;;;;;7.17;3.60;;;;;;;21.16;59.50;101094.06;4878661;29;20370;-62
2023/08/10 08:38:51;;;;;;;9.00;3.33;;;;;;;21.23;59.95;101103.88;4880129;29;20686;-63
2023/08/10 08:41:21;;;;;;;9.40;3.40;;;;;;;21.29;60.14;101100.34;4881945;29;20259;-64
2023/08/10 08:43:50;;;;;;;6.80;3.67;;;;;;;21.29;58.64;101094.13;4879784;29;20265;-61
2023/08/10 08:46:26;;;;;;;5.03;3.20;;;;;;;21.36;59.50;101098.53;4880065;29;20308;-63
2023/08/10 08:48:54;;;;;;;7.50;3.33;;;;;;;21.41;59.71;101095.22;4882176;29;20213;-60
2023/08/10 08:51:22;;;;;;;7.83;3.57;;;;;;;21.45;59.27;101092.94;4879985;29;20763;-64
2023/08/10 08:53:51;;;;;;;7.33;3.20;;;;;;;21.58;59.48;101095.66;4881206;29;20746;-60
2023/08/10 08:56:19;;;;;;;10.23;3.38;;;;;;;21.80;58.61;101088.22;4873358;29;20238;-62
2023/08/10 08:58:47;;;;;;;8.48;3.47;;;;;;;21.98;58.57;101089.31;4879010;29;20340;-64
2023/08/10 09:01:16;;;;;;;8.90;2.97;;;;;;;22.08;56.50;101095.09;4880147;29;20213;-62
2023/08/10 09:03:46;;;;;;;5.13;2.40;;;;;;;22.15;56.02;101087.00;4876730;29;20238;-61
2023/08/10 09:06:14;;;;;;;6.97;2.80;;;;;;;22.22;55.20;101079.72;4879293;29;20216;-61
2023/08/10 09:08:42;;;;;;;9.00;2.95;;;;;;;22.37;55.52;101074.09;4882592;29;20687;-61
2023/08/10 09:11:10;;;;;;;9.98;3.55;;;;;;;22.49;56.27;101073.25;4881185;29;20664;-64
2023/08/10 09:13:38;;;;;;;12.32;4.32;;;;;;;22.60;55.64;101076.34;4882518;29;20585;-63
2023/08/10 09:16:08;;;;;;;6.50;3.78;;;;;;;22.73;53.53;101070.88;4882314;29;20233;-62
2023/08/10 09:18:38;;;;;;;8.82;2.88;;;;;;;22.83;54.65;101076.69;4884758;29;20217;-63
2023/08/10 09:21:15;;;;;;;40.20;6.80;;;;;;;22.94;54.50;101075.19;4884441;29;20353;-64
2023/08/10 09:23:45;;;;;;;10.43;3.58;;;;;;;23.06;53.15;101071.59;4883565;29;20817;-63
2023/08/10 09:26:17;;;;;;;7.32;3.03;;;;;;;23.14;54.06;101065.09;4885820;29;20624;-64
2023/08/10 09:28:46;;;;;;;6.90;2.40;;;;;;;23.22;54.88;101064.84;4883061;29;20718;-64
2023/08/10 09:31:15;;;;;;;6.00;2.58;;;;;;;23.36;55.24;101062.91;4881973;29;21451;-65
2023/08/10 09:33:43;;;;;;;5.63;2.40;;;;;;;23.49;55.21;101063.69;4882089;29;20221;-61
2023/08/10 09:36:10;;;;;;;6.00;2.75;;;;;;;23.61;53.45;101061.94;4882085;29;20242;-63
2023/08/10 09:38:50;;;;;;;11.23;2.90;;;;;;;23.75;53.26;101059.94;4881604;29;20246;-62
2023/08/10 09:41:19;;;;;;;7.28;2.92;;;;;;;23.84;53.55;101055.91;4883210;29;20220;-61
2023/08/10 09:43:48;;;;;;;6.03;2.60;;;;;;;23.96;53.67;101056.03;4881811;29;20826;-64
2023/08/10 09:46:17;;;;;;;6.38;2.50;;;;;;;24.05;52.57;101038.44;4882509;29;20735;-61
2023/08/10 09:48:46;;;;;;;5.55;2.35;;;;;;;24.19;51.12;101045.38;4879843;29;20213;-62
2023/08/10 09:51:14;;;;;;;4.40;2.17;;;;;;;24.29;52.17;101043.03;4881969;29;20237;-60
2023/08/10 09:53:44;;;;;;;13.63;2.60;;;;;;;24.39;52.07;101037.09;4883943;29;20265;-65
2023/08/10 09:56:12;;;;;;;5.95;2.22;;;;;;;24.50;51.56;101040.94;4882812;29;20714;-62
2023/08/10 09:58:41;;;;;;;4.00;2.40;;;;;;;24.54;51.44;101040.25;4882638;29;20209;-64
2023/08/10 10:01:10;;;;;;;11.55;4.72;;;;;;;24.60;50.46;101038.53;4878837;29;20249;-65
2023/08/10 10:03:43;;;;;;;6.60;2.72;;;;;;;24.68;49.13;101039.06;4883255;29;20213;-65
2023/08/10 10:06:14;;;;;;;4.35;2.20;;;;;;;24.81;47.88;101035.34;4881826;29;20229;-64
2023/08/10 10:08:52;;;;;;;7.22;2.92;;;;;;;24.85;48.25;101036.53;4881138;29;20221;-64
2023/08/10 10:11:21;;;;;;;5.82;2.15;;;;;;;24.89;48.37;101032.31;4882508;29;20249;-64
2023/08/10 10:13:49;;;;;;;4.60;1.75;;;;;;;24.95;48.24;101031.44;4878963;29;20581;-65
2023/08/10 10:16:17;;;;;;;4.95;2.10;;;;;;;25.03;47.17;101025.69;4879829;29;20297;-65
2023/08/10 10:18:45;;;;;;;5.78;2.30;;;;;;;25.08;47.17;101023.09;4881644;29;20909;-64
2023/08/10 10:21:13;;;;;;;10.43;5.20;;;;;;;25.11;47.07;101025.38;4883233;29;20247;-67
2023/08/10 10:23:42;;;;;;;4.78;2.35;;;;;;;25.21;47.31;101024.00;4882587;29;20218;-64
2023/08/10 10:29:07;;;;;;;4.13;1.70;;;;;;;25.38;45.34;101023.09;5479646;23;20466;-66
2023/08/10 10:31:36;;;;;;;5.78;2.00;;;;;;;25.45;44.61;101017.56;4894224;29;20228;-65
2023/08/10 10:34:04;;;;;;;5.30;2.10;;;;;;;25.52;43.38;101018.28;4894972;29;20234;-65
2023/08/10 10:36:32;;;;;;;2.10;1.48;;;;;;;25.49;41.66;101011.44;4900279;29;20323;-65
2023/08/10 10:39:08;;;;;;;5.55;1.90;;;;;;;25.49;42.14;101016.03;4911870;29;20675;-68
2023/08/10 10:41:36;;;;;;;5.63;1.95;;;;;;;25.65;41.91;101007.25;5404036;23;20236;-63
2023/08/10 10:44:05;;;;;;;4.63;1.77;;;;;;;25.91;41.34;101002.41;4883453;29;20331;-64
2023/08/10 10:46:38;;;;;;;3.80;1.80;;;;;;;26.08;40.52;100997.91;4895588;29;20220;-68
2023/08/10 10:49:07;;;;;;;4.78;1.45;;;;;;;26.27;39.14;100991.31;4894657;29;20209;-66
2023/08/10 10:51:49;;;;;;;4.90;1.95;;;;;;;26.28;39.10;100986.72;4894055;29;20236;-65
2023/08/10 10:54:18;;;;;;;6.40;1.67;;;;;;;26.45;40.47;100991.16;4893859;29;20272;-59
2023/08/10 10:56:47;;;;;;;4.22;1.58;;;;;;;26.97;37.52;100991.13;4896288;29;20632;-62
2023/08/10 10:59:16;;;;;;;5.22;1.70;;;;;;;27.13;38.44;100995.78;4894837;29;20317;-63
2023/08/10 11:01:47;;;;;;;4.65;1.60;;;;;;;27.31;38.45;100989.28;4895481;29;20345;-67
2023/08/10 11:04:15;;;;;;;5.55;1.83;;;;;;;27.62;37.06;100983.31;4895329;29;20224;-66
2023/08/10 11:06:43;;;;;;;3.63;1.58;;;;;;;27.64;37.46;100974.88;4894527;29;20240;-67
2023/08/10 11:09:13;;;;;;;2.92;1.55;;;;;;;27.45;37.62;100976.16;4894585;29;20333;-67
2023/08/10 11:11:47;;;;;;;3.63;1.83;;;;;;;27.35;37.67;100972.22;4897252;29;20213;-67
2023/08/10 11:14:15;;;;;;;3.95;1.75;;;;;;;27.38;37.49;100970.06;4894131;29;20208;-64
2023/08/10 11:16:44;;;;;;;2.35;1.33;;;;;;;27.29;36.19;100978.66;4894749;29;20249;-67
2023/08/10 11:19:14;;;;;;;4.70;1.75;;;;;;;27.41;35.46;100975.03;4893678;29;20297;-65
2023/08/10 11:21:45;;;;;;;2.72;1.50;;;;;;;27.63;36.25;100975.97;4895537;29;20323;-64
2023/08/10 11:24:13;;;;;;;2.95;1.80;;;;;;;27.92;35.18;100966.59;4897891;29;20227;-64
2023/08/10 11:26:43;;;;;;;2.92;1.80;;;;;;;28.06;34.46;100970.59;4894924;29;20214;-65
2023/08/10 11:29:11;;;;;;;3.85;2.10;;;;;;;28.23;34.17;100969.78;4894156;29;20295;-64
2023/08/10 11:31:40;;;;;;;4.90;1.73;;;;;;;28.41;33.57;100961.28;4892419;29;20762;-65
2023/08/10 11:34:21;;;;;;;7.22;1.85;;;;;;;28.63;33.86;100951.19;4890811;29;21402;-62
2023/08/10 11:36:49;;;;;;;4.38;1.80;;;;;;;28.78;34.43;100950.56;4895174;29;20272;-65
2023/08/10 11:39:17;;;;;;;4.85;2.00;;;;;;;28.87;34.21;100957.19;4895236;29;20209;-68
2023/08/10 11:41:47;;;;;;;7.57;2.05;;;;;;;29.09;34.70;100954.41;4893388;29;20243;-68
2023/08/10 11:44:32;;;;;;;5.22;2.30;;;;;;;29.33;34.02;100952.16;4891424;29;20265;-68
2023/08/10 11:47:00;;;;;;;3.92;2.00;;;;;;;29.14;34.02;100951.72;4891626;29;20213;-70
2023/08/10 11:49:31;;;;;;;9.82;3.33;;;;;;;28.46;34.68;100947.72;4890537;29;20225;-66
2023/08/10 11:52:02;;;;;;;4.22;2.28;;;;;;;28.28;34.85;100967.13;4893048;29;20212;-66
2023/08/10 11:54:31;;;;;;;3.83;2.28;;;;;;;27.84;35.02;100958.84;4892989;29;20213;-68
2023/08/10 11:57:09;;;;;;;9.25;2.00;;;;;;;27.42;36.01;100955.72;4889892;29;20422;-66
2023/08/10 11:59:37;;;;;;;5.18;2.20;;;;;;;27.08;36.77;100951.34;4890247;29;20990;-67
2023/08/10 12:02:05;;;;;;;4.13;1.90;;;;;;;26.76;36.90;100956.41;4892096;29;20217;-67
2023/08/10 12:04:36;;;;;;;3.72;2.28;;;;;;;26.49;37.52;100951.53;4894452;29;20293;-67
2023/08/10 12:07:07;;;;;;;12.15;5.72;;;;;;;26.21;39.24;100948.75;4893132;29;20209;-66
2023/08/10 12:09:40;;;;;;;4.60;2.97;;;;;;;26.12;37.95;100950.19;4891089;29;20214;-66
2023/08/10 12:12:13;;;;;;;5.00;2.17;;;;;;;25.88;38.95;100959.41;4892870;29;20697;-67
2023/08/10 12:14:41;;;;;;;5.68;2.25;;;;;;;25.70;39.12;100952.22;4889662;29;20778;-65
2023/08/10 12:17:10;;;;;;;7.32;4.57;;;;;;;25.63;39.16;100954.22;4893732;29;20300;-67
2023/08/10 12:19:38;;;;;;;5.28;2.80;;;;;;;25.52;40.04;100944.13;4896978;29;20214;-65
2023/08/10 12:22:06;;;;;;;5.93;2.05;;;;;;;25.46;39.58;100951.34;4894620;29;20244;-66
2023/08/10 12:24:34;;;;;;;4.93;2.13;;;;;;;25.39;39.71;100947.91;4891979;29;20620;-69
2023/08/10 12:27:05;;;;;;;3.85;2.28;;;;;;;25.36;40.04;100945.66;4893589;29;20220;-66
2023/08/10 12:29:37;;;;;;;4.20;1.95;;;;;;;25.31;39.59;100949.09;4889636;29;21169;-67
2023/08/10 12:32:06;;;;;;;4.80;2.17;;;;;;;25.26;39.02;100950.81;4891142;29;21211;-66
2023/08/10 12:34:34;;;;;;;4.13;1.80;;;;;;;25.19;38.89;100959.06;4889730;29;20219;-65
2023/08/10 12:37:04;;;;;;;5.38;2.63;;;;;;;25.08;39.18;100955.28;4892532;29;20237;-64
2023/08/10 12:39:33;;;;;;;5.22;3.20;;;;;;;25.05;39.86;100954.94;4890715;29;20224;-64
2023/08/10 12:42:02;;;;;;;6.47;3.35;;;;;;;25.03;40.47;100951.59;4888812;29;20259;-65
2023/08/10 12:44:31;;;;;;;6.03;2.88;;;;;;;25.03;40.74;100952.44;4892913;29;20213;-67
2023/08/10 12:47:01;;;;;;;6.78;2.72;;;;;;;25.05;40.97;100939.47;4892420;29;20299;-65
2023/08/10 12:49:29;;;;;;;5.25;2.20;;;;;;;25.07;40.41;100948.19;4892702;29;21272;-63
2023/08/10 12:51:57;;;;;;;4.32;2.70;;;;;;;24.97;39.87;100949.84;4890458;29;20276;-64
2023/08/10 12:54:26;;;;;;;3.65;2.83;;;;;;;25.02;40.00;100953.50;4891043;29;20215;-64
2023/08/10 12:56:59;;;;;;;5.13;2.63;;;;;;;25.06;40.17;100951.97;4890771;29;20295;-63
2023/08/10 12:59:28;;;;;;;5.50;2.80;;;;;;;25.10;39.84;100955.88;4890486;29;20217;-64
2023/08/10 13:01:56;;;;;;;5.00;2.80;;;;;;;25.26;39.07;100962.50;4889588;29;20229;-63
2023/08/10 13:04:25;;;;;;;4.30;2.58;;;;;;;25.20;39.09;100957.19;4892775;29;20224;-64
2023/08/10 13:06:56;;;;;;;4.55;2.75;;;;;;;25.14;39.03;100958.97;4889310;29;20261;-63
2023/08/10 13:09:24;;;;;;;5.22;2.65;;;;;;;25.09;39.57;100962.34;4889494;29;20240;-64
2023/08/10 13:11:54;;;;;;;4.43;2.95;;;;;;;25.18;38.60;100956.59;4890893;29;20297;-65
2023/08/10 13:14:22;;;;;;;4.75;2.80;;;;;;;25.09;38.76;100962.34;4890218;29;20303;-64
2023/08/10 13:16:50;;;;;;;5.63;2.60;;;;;;;24.99;39.50;100966.69;4890113;29;20927;-64
2023/08/10 13:19:20;;;;;;;7.85;2.60;;;;;;;25.03;39.55;100952.44;4890603;29;21157;-65
2023/08/10 13:21:49;;;;;;;5.75;2.50;;;;;;;25.05;40.17;100958.47;4889777;29;20223;-64
2023/08/10 13:24:17;;;;;;;6.05;2.60;;;;;;;25.14;39.72;100964.38;4892318;29;20218;-65
2023/08/10 13:26:45;;;;;;;6.82;3.75;;;;;;;25.18;40.72;100953.88;4893885;29;20300;-63
2023/08/10 13:29:13;;;;;;;5.13;2.80;;;;;;;25.18;40.68;100953.88;4889533;29;20296;-65
2023/08/10 13:31:41;;;;;;;6.80;2.80;;;;;;;25.20;40.90;100954.47;4891168;29;20577;-64
2023/08/10 13:34:11;;;;;;;4.70;2.80;;;;;;;25.25;40.67;100955.44;4891265;29;20645;-64
2023/08/10 13:36:40;;;;;;;6.75;2.25;;;;;;;25.22;39.57;100949.66;4889074;29;20216;-64
2023/08/10 13:39:10;;;;;;;3.75;2.17;;;;;;;25.35;38.92;100952.16;4890249;29;20229;-64
2023/08/10 13:41:38;;;;;;;6.28;2.30;;;;;;;25.49;38.79;100951.72;4890002;29;20241;-64
2023/08/10 13:44:06;;;;;;;4.43;1.90;;;;;;;25.53;39.60;100940.38;4890043;29;20206;-64
2023/08/10 13:46:34;;;;;;;3.85;2.25;;;;;;;25.54;39.20;100936.59;4893647;29;20319;-65
2023/08/10 13:49:02;;;;;;;3.92;2.40;;;;;;;25.53;39.48;100932.22;4892336;29;20272;-64
2023/08/10 13:51:32;;;;;;;5.45;2.13;;;;;;;25.52;38.85;100925.97;4895816;29;20760;-64
2023/08/10 13:54:01;;;;;;;4.20;2.15;;;;;;;25.47;39.20;100925.84;4895373;29;20209;-65
2023/08/10 13:56:53;;;;;;;6.43;2.40;;;;;;;25.43;39.69;100930.09;4902565;29;20220;-65
2023/08/10 13:59:21;;;;;;;5.25;2.20;;;;;;;25.38;39.81;100932.69;4897417;29;20613;-66
2023/08/10 14:01:49;;;;;;;3.45;1.95;;;;;;;25.35;40.02;100930.44;4896779;29;20205;-65
2023/08/10 14:04:18;;;;;;;3.67;1.80;;;;;;;25.37;39.64;100931.84;4894509;29;20246;-65
2023/08/10 14:06:46;;;;;;;6.13;2.00;;;;;;;25.43;38.25;100920.06;4891023;29;20224;-64
2023/08/10 14:09:14;;;;;;;3.47;2.05;;;;;;;25.38;38.15;100922.66;4895546;29;20239;-64
2023/08/10 14:11:46;;;;;;;5.05;2.22;;;;;;;25.33;39.00;100914.38;4894971;29;20253;-64
2023/08/10 14:14:16;;;;;;;3.75;2.00;;;;;;;25.32;38.66;100911.91;4893125;29;20763;-64
2023/08/10 14:16:46;;;;;;;3.30;1.88;;;;;;;25.25;38.91;100922.03;4900204;29;20212;-64
2023/08/10 14:19:14;;;;;;;3.50;2.17;;;;;;;25.17;39.12;100914.22;4894540;29;20323;-64
2023/08/10 14:21:42;;;;;;;5.35;2.92;;;;;;;25.11;39.62;100924.13;4894967;29;20223;-62
2023/08/10 14:24:10;;;;;;;5.28;2.22;;;;;;;25.09;38.83;100918.13;4894519;29;20262;-64
2023/08/10 14:26:38;;;;;;;3.95;2.22;;;;;;;25.06;39.25;100916.72;4893224;29;20695;-66
2023/08/10 14:29:07;;;;;;;9.07;3.30;;;;;;;25.04;39.58;100926.97;4893642;29;20693;-67
2023/08/10 14:31:39;;;;;;;21.15;3.80;;;;;;;25.02;41.08;100920.94;4895855;29;20205;-68
2023/08/10 14:34:07;;;;;;;15.45;3.00;;;;;;;24.94;43.50;100915.00;4895157;29;20986;-68
2023/08/10 14:36:35;;;;;;;6.95;2.10;;;;;;;24.84;44.94;100912.00;4895147;29;20669;-67
2023/08/10 14:39:04;;;;;;;3.83;1.90;;;;;;;24.77;41.07;100906.69;4895799;29;20234;-68